sensor_id;sensor_type;location;lat;lon;timestamp;pressure;altitude;pressure_sealevel;temperature;humidity
51227;BME280;42714;48.260;10.980;2023-11-21T00:03:12;965.1;;;6.8;100.0
51227;BME280;42714;48.260;10.980;2023-11-21T00:08:13;965.0;;;6.8;100.0
51227;BME280;42714;48.260;10.980;2023-11-21T00:13:14;964.9;;;6.9;100.0
51227;BME280;42714;48.260;10.980;2023-11-21T00:18:15;964.9;;;6.9;100.0
51227;BME280;42714;48.260;10.980;2023-11-21T00:23:16;964.9;;;7.0;100.0
51227;BME280;42714;48.260;10.980;2023-11-21T00:28:17;964.9;;;7.0;100.0
51227;BME280;42714;48.260;10.980;2023-11-21T00:33:18;964.8;;;7.0;100.0
51227;BME280;42714;48.260;10.980;2023-11-21T00:38:19;964.9;;;7.1;100.0
51227;BME280;42714;48.260;10.980;2023-11-21T00:43:21;964.9;;;7.0;100.0
51227;BME280;42714;48.260;10.980;2023-11-21T00:48:21;964.9;;;7.1;100.0
51227;BME280;42714;48.260;10.980;2023-11-21T00:53:22;964.9;;;7.1;100.0
51227;BME280;42714;48.260;10.980;2023-11-21T00:58:24;965.0;;;7.2;100.0
51227;BME280;42714;48.260;10.980;2023-11-21T01:03:25;965.0;;;7.2;100.0
51227;BME280;42714;48.260;10.980;2023-11-21T01:08:25;965.1;;;7.3;100.0
51227;BME280;42714;48.260;10.980;2023-11-21T01:13:27;965.2;;;7.3;100.0
51227;BME280;42714;48.260;10.980;2023-11-21T01:18:27;965.2;;;7.3;100.0
51227;BME280;42714;48.260;10.980;2023-11-21T01:23:29;965.2;;;7.3;100.0
51227;BME280;42714;48.260;10.980;2023-11-21T01:28:30;965.2;;;7.2;100.0
51227;BME280;42714;48.260;10.980;2023-11-21T01:33:31;965.2;;;7.2;100.0
51227;BME280;42714;48.260;10.980;2023-11-21T01:38:32;965.2;;;7.1;100.0
51227;BME280;42714;48.260;10.980;2023-11-21T01:43:33;965.1;;;7.0;100.0
51227;BME280;42714;48.260;10.980;2023-11-21T01:48:34;965.1;;;7.0;100.0
51227;BME280;42714;48.260;10.980;2023-11-21T01:53:35;965.0;;;6.9;100.0
51227;BME280;42714;48.260;10.980;2023-11-21T01:58:36;965.1;;;6.9;100.0
51227;BME280;42714;48.260;10.980;2023-11-21T02:03:37;965.1;;;6.9;100.0
51227;BME280;42714;48.260;10.980;2023-11-21T02:08:38;965.0;;;6.9;100.0
51227;BME280;42714;48.260;10.980;2023-11-21T02:13:39;965.0;;;7.0;100.0
51227;BME280;42714;48.260;10.980;2023-11-21T02:18:40;964.9;;;7.1;100.0
51227;BME280;42714;48.260;10.980;2023-11-21T02:23:41;964.9;;;7.1;100.0
51227;BME280;42714;48.260;10.980;2023-11-21T02:28:42;964.9;;;7.2;100.0
51227;BME280;42714;48.260;10.980;2023-11-21T02:33:43;964.8;;;7.2;100.0
51227;BME280;42714;48.260;10.980;2023-11-21T02:38:44;964.8;;;7.2;100.0
51227;BME280;42714;48.260;10.980;2023-11-21T02:43:45;964.8;;;7.1;100.0
51227;BME280;42714;48.260;10.980;2023-11-21T02:48:46;964.8;;;7.0;100.0
51227;BME280;42714;48.260;10.980;2023-11-21T02:53:47;964.8;;;7.0;100.0
51227;BME280;42714;48.260;10.980;2023-11-21T02:58:48;964.8;;;7.0;100.0
51227;BME280;42714;48.260;10.980;2023-11-21T03:03:49;964.7;;;7.1;100.0
51227;BME280;42714;48.260;10.980;2023-11-21T03:08:50;964.7;;;7.0;100.0
51227;BME280;42714;48.260;10.980;2023-11-21T03:13:51;964.7;;;6.9;100.0
51227;BME280;42714;48.260;10.980;2023-11-21T03:18:52;964.7;;;6.8;100.0
51227;BME280;42714;48.260;10.980;2023-11-21T03:23:53;964.8;;;6.7;100.0
51227;BME280;42714;48.260;10.980;2023-11-21T03:28:54;964.8;;;6.8;100.0
51227;BME280;42714;48.260;10.980;2023-11-21T03:33:55;964.7;;;6.8;100.0
51227;BME280;42714;48.260;10.980;2023-11-21T03:38:56;964.7;;;6.8;100.0
51227;BME280;42714;48.260;10.980;2023-11-21T03:43:57;964.6;;;6.7;100.0
51227;BME280;42714;48.260;10.980;2023-11-21T03:48:58;964.7;;;6.6;100.0
51227;BME280;42714;48.260;10.980;2023-11-21T03:53:59;964.8;;;6.7;100.0
51227;BME280;42714;48.260;10.980;2023-11-21T03:59:00;964.8;;;6.7;100.0
51227;BME280;42714;48.260;10.980;2023-11-21T04:04:01;964.8;;;6.6;100.0
51227;BME280;42714;48.260;10.980;2023-11-21T04:09:02;964.9;;;6.6;100.0
51227;BME280;42714;48.260;10.980;2023-11-21T04:14:03;964.9;;;6.7;100.0
51227;BME280;42714;48.260;10.980;2023-11-21T04:19:04;964.9;;;6.6;100.0
51227;BME280;42714;48.260;10.980;2023-11-21T04:29:06;964.9;;;6.4;100.0
51227;BME280;42714;48.260;10.980;2023-11-21T04:34:07;964.8;;;6.3;100.0
51227;BME280;42714;48.260;10.980;2023-11-21T04:39:08;964.9;;;6.3;100.0
51227;BME280;42714;48.260;10.980;2023-11-21T04:44:09;964.9;;;6.2;100.0
51227;BME280;42714;48.260;10.980;2023-11-21T04:49:10;964.8;;;6.1;100.0
51227;BME280;42714;48.260;10.980;2023-11-21T04:54:11;964.9;;;6.1;100.0
51227;BME280;42714;48.260;10.980;2023-11-21T04:59:12;964.9;;;6.1;100.0
51227;BME280;42714;48.260;10.980;2023-11-21T05:04:13;965.0;;;6.1;100.0
51227;BME280;42714;48.260;10.980;2023-11-21T05:09:14;965.0;;;6.2;100.0
51227;BME280;42714;48.260;10.980;2023-11-21T05:14:15;965.0;;;6.1;100.0
51227;BME280;42714;48.260;10.980;2023-11-21T05:19:16;965.0;;;6.1;100.0
51227;BME280;42714;48.260;10.980;2023-11-21T05:24:17;965.0;;;6.1;100.0
51227;BME280;42714;48.260;10.980;2023-11-21T05:29:18;965.1;;;6.1;100.0
51227;BME280;42714;48.260;10.980;2023-11-21T05:34:19;965.2;;;6.0;100.0
51227;BME280;42714;48.260;10.980;2023-11-21T05:39:20;965.1;;;6.0;100.0
51227;BME280;42714;48.260;10.980;2023-11-21T05:44:21;965.1;;;6.0;100.0
51227;BME280;42714;48.260;10.980;2023-11-21T05:49:22;965.1;;;5.9;100.0
51227;BME280;42714;48.260;10.980;2023-11-21T05:54:23;965.2;;;5.9;100.0
51227;BME280;42714;48.260;10.980;2023-11-21T05:59:24;965.1;;;5.8;100.0
51227;BME280;42714;48.260;10.980;2023-11-21T06:04:25;965.2;;;5.8;100.0
51227;BME280;42714;48.260;10.980;2023-11-21T06:09:26;965.2;;;5.7;100.0
51227;BME280;42714;48.260;10.980;2023-11-21T06:14:27;965.3;;;5.6;100.0
51227;BME280;42714;48.260;10.980;2023-11-21T06:19:28;965.3;;;5.6;100.0
51227;BME280;42714;48.260;10.980;2023-11-21T06:24:29;965.4;;;5.7;100.0
51227;BME280;42714;48.260;10.980;2023-11-21T06:29:30;965.4;;;5.8;100.0
51227;BME280;42714;48.260;10.980;2023-11-21T06:34:31;965.4;;;5.9;100.0
51227;BME280;42714;48.260;10.980;2023-11-21T06:39:32;965.5;;;5.9;100.0
51227;BME280;42714;48.260;10.980;2023-11-21T06:44:33;965.5;;;6.0;100.0
51227;BME280;42714;48.260;10.980;2023-11-21T06:49:34;965.6;;;6.0;100.0
51227;BME280;42714;48.260;10.980;2023-11-21T06:54:36;965.6;;;6.1;100.0
51227;BME280;42714;48.260;10.980;2023-11-21T06:59:36;965.7;;;6.0;100.0
51227;BME280;42714;48.260;10.980;2023-11-21T07:04:37;965.7;;;6.0;100.0
51227;BME280;42714;48.260;10.980;2023-11-21T07:09:38;965.7;;;5.9;100.0
51227;BME280;42714;48.260;10.980;2023-11-21T07:14:39;965.8;;;6.0;100.0
51227;BME280;42714;48.260;10.980;2023-11-21T07:19:40;965.8;;;6.0;100.0
51227;BME280;42714;48.260;10.980;2023-11-21T07:24:43;965.9;;;6.2;100.0
51227;BME280;42714;48.260;10.980;2023-11-21T07:29:42;965.9;;;6.3;100.0
51227;BME280;42714;48.260;10.980;2023-11-21T07:34:43;966.0;;;6.5;100.0
51227;BME280;42714;48.260;10.980;2023-11-21T07:39:44;966.0;;;6.7;100.0
51227;BME280;42714;48.260;10.980;2023-11-21T07:44:45;966.0;;;7.1;100.0
51227;BME280;42714;48.260;10.980;2023-11-21T07:49:46;966.0;;;7.1;100.0
51227;BME280;42714;48.260;10.980;2023-11-21T07:54:47;966.1;;;7.2;100.0
51227;BME280;42714;48.260;10.980;2023-11-21T07:59:48;966.1;;;7.3;100.0
51227;BME280;42714;48.260;10.980;2023-11-21T08:04:49;966.0;;;7.7;100.0
51227;BME280;42714;48.260;10.980;2023-11-21T08:09:50;966.0;;;7.9;100.0
51227;BME280;42714;48.260;10.980;2023-11-21T08:14:51;966.0;;;8.1;100.0
51227;BME280;42714;48.260;10.980;2023-11-21T08:19:52;966.1;;;8.3;100.0
51227;BME280;42714;48.260;10.980;2023-11-21T08:24:53;966.1;;;8.4;100.0
51227;BME280;42714;48.260;10.980;2023-11-21T08:29:54;966.1;;;8.6;100.0
51227;BME280;42714;48.260;10.980;2023-11-21T08:34:55;966.1;;;8.9;100.0
51227;BME280;42714;48.260;10.980;2023-11-21T08:39:57;966.1;;;9.1;100.0
51227;BME280;42714;48.260;10.980;2023-11-21T08:44:57;966.2;;;9.3;100.0
51227;BME280;42714;48.260;10.980;2023-11-21T08:49:58;966.3;;;9.5;100.0
51227;BME280;42714;48.260;10.980;2023-11-21T08:54:59;966.2;;;9.6;100.0
51227;BME280;42714;48.260;10.980;2023-11-21T09:00:00;966.3;;;9.7;100.0
51227;BME280;42714;48.260;10.980;2023-11-21T09:05:01;966.2;;;10.0;100.0
51227;BME280;42714;48.260;10.980;2023-11-21T09:10:02;966.3;;;10.3;100.0
51227;BME280;42714;48.260;10.980;2023-11-21T09:15:04;966.3;;;11.0;100.0
51227;BME280;42714;48.260;10.980;2023-11-21T09:25:05;966.2;;;12.0;100.0
51227;BME280;42714;48.260;10.980;2023-11-21T09:30:07;966.3;;;12.4;100.0
51227;BME280;42714;48.260;10.980;2023-11-21T09:35:07;966.3;;;12.9;100.0
51227;BME280;42714;48.260;10.980;2023-11-21T09:40:09;966.3;;;13.4;100.0
51227;BME280;42714;48.260;10.980;2023-11-21T09:45:21;966.3;;;13.4;100.0
51227;BME280;42714;48.260;10.980;2023-11-21T09:50:10;966.3;;;13.2;100.0
51227;BME280;42714;48.260;10.980;2023-11-21T09:55:11;966.4;;;12.8;100.0
51227;BME280;42714;48.260;10.980;2023-11-21T10:05:13;966.3;;;12.7;100.0
51227;BME280;42714;48.260;10.980;2023-11-21T10:10:14;966.3;;;12.2;100.0
51227;BME280;42714;48.260;10.980;2023-11-21T10:15:15;966.4;;;12.0;100.0
51227;BME280;42714;48.260;10.980;2023-11-21T10:20:16;966.4;;;12.3;100.0
51227;BME280;42714;48.260;10.980;2023-11-21T10:25:17;966.4;;;12.8;100.0
51227;BME280;42714;48.260;10.980;2023-11-21T10:30:18;966.3;;;14.0;100.0
51227;BME280;42714;48.260;10.980;2023-11-21T10:35:19;966.2;;;15.9;100.0
51227;BME280;42714;48.260;10.980;2023-11-21T10:40:20;966.1;;;17.7;96.5
51227;BME280;42714;48.260;10.980;2023-11-21T10:45:21;966.1;;;18.2;86.4
51227;BME280;42714;48.260;10.980;2023-11-21T10:50:23;966.2;;;18.1;81.8
51227;BME280;42714;48.260;10.980;2023-11-21T10:55:23;966.2;;;17.1;95.6
51227;BME280;42714;48.260;10.980;2023-11-21T11:00:24;966.2;;;15.8;100.0
51227;BME280;42714;48.260;10.980;2023-11-21T11:05:26;966.3;;;15.0;100.0
51227;BME280;42714;48.260;10.980;2023-11-21T11:10:27;966.2;;;14.5;100.0
51227;BME280;42714;48.260;10.980;2023-11-21T11:15:27;966.2;;;14.6;100.0
51227;BME280;42714;48.260;10.980;2023-11-21T11:20:30;966.2;;;14.2;100.0
51227;BME280;42714;48.260;10.980;2023-11-21T11:25:35;966.2;;;13.8;100.0
51227;BME280;42714;48.260;10.980;2023-11-21T11:35:37;966.2;;;13.3;100.0
51227;BME280;42714;48.260;10.980;2023-11-21T11:40:38;966.2;;;13.4;100.0
51227;BME280;42714;48.260;10.980;2023-11-21T11:45:34;966.1;;;13.4;100.0
51227;BME280;42714;48.260;10.980;2023-11-21T11:50:34;966.1;;;13.5;100.0
51227;BME280;42714;48.260;10.980;2023-11-21T11:55:35;966.2;;;13.6;100.0
51227;BME280;42714;48.260;10.980;2023-11-21T12:00:36;966.1;;;13.7;100.0
51227;BME280;42714;48.260;10.980;2023-11-21T12:05:37;966.2;;;13.6;100.0
51227;BME280;42714;48.260;10.980;2023-11-21T12:10:38;966.2;;;13.3;100.0
51227;BME280;42714;48.260;10.980;2023-11-21T12:15:39;966.2;;;12.8;100.0
51227;BME280;42714;48.260;10.980;2023-11-21T12:20:40;966.2;;;12.7;100.0
51227;BME280;42714;48.260;10.980;2023-11-21T12:25:41;966.2;;;12.4;100.0
51227;BME280;42714;48.260;10.980;2023-11-21T12:30:42;966.2;;;12.3;100.0
51227;BME280;42714;48.260;10.980;2023-11-21T12:35:43;966.2;;;12.2;100.0
51227;BME280;42714;48.260;10.980;2023-11-21T12:40:44;966.2;;;12.0;100.0
51227;BME280;42714;48.260;10.980;2023-11-21T12:45:45;966.2;;;12.4;100.0
51227;BME280;42714;48.260;10.980;2023-11-21T12:50:46;966.2;;;13.4;100.0
51227;BME280;42714;48.260;10.980;2023-11-21T12:55:47;966.2;;;14.6;100.0
51227;BME280;42714;48.260;10.980;2023-11-21T13:00:48;966.2;;;15.9;100.0
51227;BME280;42714;48.260;10.980;2023-11-21T13:05:49;966.2;;;16.2;100.0
51227;BME280;42714;48.260;10.980;2023-11-21T13:10:52;966.2;;;16.7;100.0
51227;BME280;42714;48.260;10.980;2023-11-21T13:15:52;966.3;;;15.7;100.0
51227;BME280;42714;48.260;10.980;2023-11-21T13:20:55;966.4;;;14.2;100.0
51227;BME280;42714;48.260;10.980;2023-11-21T13:25:53;966.4;;;13.2;100.0
51227;BME280;42714;48.260;10.980;2023-11-21T13:30:54;966.5;;;12.5;100.0
51227;BME280;42714;48.260;10.980;2023-11-21T13:35:55;966.5;;;12.0;100.0
51227;BME280;42714;48.260;10.980;2023-11-21T13:40:56;966.5;;;12.0;100.0
51227;BME280;42714;48.260;10.980;2023-11-21T13:45:57;966.6;;;11.4;100.0
51227;BME280;42714;48.260;10.980;2023-11-21T13:50:58;966.7;;;10.7;100.0
51227;BME280;42714;48.260;10.980;2023-11-21T13:55:59;966.7;;;10.2;100.0
51227;BME280;42714;48.260;10.980;2023-11-21T14:01:00;966.8;;;10.0;100.0
51227;BME280;42714;48.260;10.980;2023-11-21T14:06:01;966.9;;;9.8;100.0
51227;BME280;42714;48.260;10.980;2023-11-21T14:11:02;966.9;;;9.6;100.0
51227;BME280;42714;48.260;10.980;2023-11-21T14:16:04;966.9;;;9.6;100.0
51227;BME280;42714;48.260;10.980;2023-11-21T14:21:04;967.0;;;9.7;100.0
51227;BME280;42714;48.260;10.980;2023-11-21T14:26:05;967.1;;;9.8;100.0
51227;BME280;42714;48.260;10.980;2023-11-21T14:31:06;967.1;;;10.0;100.0
51227;BME280;42714;48.260;10.980;2023-11-21T14:36:08;967.2;;;9.9;100.0
51227;BME280;42714;48.260;10.980;2023-11-21T14:41:08;967.2;;;9.6;100.0
51227;BME280;42714;48.260;10.980;2023-11-21T14:46:09;967.2;;;9.3;100.0
51227;BME280;42714;48.260;10.980;2023-11-21T14:51:10;967.3;;;9.1;100.0
51227;BME280;42714;48.260;10.980;2023-11-21T14:56:11;967.3;;;9.0;100.0
51227;BME280;42714;48.260;10.980;2023-11-21T15:01:12;967.4;;;8.8;100.0
51227;BME280;42714;48.260;10.980;2023-11-21T15:06:13;967.3;;;8.6;100.0
51227;BME280;42714;48.260;10.980;2023-11-21T15:11:14;967.4;;;8.6;100.0
51227;BME280;42714;48.260;10.980;2023-11-21T15:16:15;967.4;;;8.5;100.0
51227;BME280;42714;48.260;10.980;2023-11-21T15:21:16;967.5;;;8.5;100.0
51227;BME280;42714;48.260;10.980;2023-11-21T15:26:17;967.6;;;8.3;100.0
51227;BME280;42714;48.260;10.980;2023-11-21T15:31:18;967.6;;;8.3;100.0
51227;BME280;42714;48.260;10.980;2023-11-21T15:36:20;967.6;;;8.2;100.0
51227;BME280;42714;48.260;10.980;2023-11-21T15:41:20;967.6;;;8.2;100.0
51227;BME280;42714;48.260;10.980;2023-11-21T15:46:21;967.6;;;8.2;100.0
51227;BME280;42714;48.260;10.980;2023-11-21T15:51:22;967.7;;;8.2;100.0
51227;BME280;42714;48.260;10.980;2023-11-21T15:56:23;967.7;;;8.2;100.0
51227;BME280;42714;48.260;10.980;2023-11-21T16:01:24;967.8;;;8.2;100.0
51227;BME280;42714;48.260;10.980;2023-11-21T16:06:26;967.9;;;8.2;100.0
51227;BME280;42714;48.260;10.980;2023-11-21T16:11:26;968.0;;;8.3;100.0
51227;BME280;42714;48.260;10.980;2023-11-21T16:16:27;968.1;;;8.1;100.0
51227;BME280;42714;48.260;10.980;2023-11-21T16:21:28;968.1;;;8.1;100.0
51227;BME280;42714;48.260;10.980;2023-11-21T16:26:29;968.1;;;7.9;100.0
51227;BME280;42714;48.260;10.980;2023-11-21T16:31:30;968.2;;;8.0;100.0
51227;BME280;42714;48.260;10.980;2023-11-21T16:36:31;968.3;;;8.0;100.0
51227;BME280;42714;48.260;10.980;2023-11-21T16:41:32;968.3;;;8.0;100.0
51227;BME280;42714;48.260;10.980;2023-11-21T16:46:33;968.4;;;8.1;100.0
51227;BME280;42714;48.260;10.980;2023-11-21T16:51:34;968.5;;;8.1;100.0
51227;BME280;42714;48.260;10.980;2023-11-21T16:56:35;968.6;;;8.0;100.0
51227;BME280;42714;48.260;10.980;2023-11-21T17:01:36;968.7;;;8.0;100.0
51227;BME280;42714;48.260;10.980;2023-11-21T17:11:39;968.8;;;7.9;100.0
51227;BME280;42714;48.260;10.980;2023-11-21T17:16:39;968.8;;;7.9;100.0
51227;BME280;42714;48.260;10.980;2023-11-21T17:21:40;968.9;;;8.0;100.0
51227;BME280;42714;48.260;10.980;2023-11-21T17:26:42;968.9;;;7.9;100.0
51227;BME280;42714;48.260;10.980;2023-11-21T17:31:43;969.0;;;8.0;100.0
51227;BME280;42714;48.260;10.980;2023-11-21T17:36:43;969.0;;;8.0;100.0
51227;BME280;42714;48.260;10.980;2023-11-21T17:41:44;969.1;;;8.1;100.0
51227;BME280;42714;48.260;10.980;2023-11-21T17:46:45;969.1;;;8.1;100.0
51227;BME280;42714;48.260;10.980;2023-11-21T17:51:46;969.1;;;8.1;100.0
51227;BME280;42714;48.260;10.980;2023-11-21T17:56:47;969.1;;;8.1;100.0
51227;BME280;42714;48.260;10.980;2023-11-21T18:01:48;969.1;;;8.1;100.0
51227;BME280;42714;48.260;10.980;2023-11-21T18:06:49;969.2;;;8.0;100.0
51227;BME280;42714;48.260;10.980;2023-11-21T18:11:50;969.2;;;8.0;100.0
51227;BME280;42714;48.260;10.980;2023-11-21T18:16:51;969.2;;;8.0;100.0
51227;BME280;42714;48.260;10.980;2023-11-21T18:21:52;969.2;;;8.1;100.0
51227;BME280;42714;48.260;10.980;2023-11-21T18:26:54;969.2;;;8.1;100.0
51227;BME280;42714;48.260;10.980;2023-11-21T18:31:54;969.3;;;8.0;100.0
51227;BME280;42714;48.260;10.980;2023-11-21T18:36:56;969.4;;;8.0;100.0
51227;BME280;42714;48.260;10.980;2023-11-21T18:41:57;969.4;;;8.0;100.0
51227;BME280;42714;48.260;10.980;2023-11-21T18:46:58;969.4;;;8.0;100.0
51227;BME280;42714;48.260;10.980;2023-11-21T18:51:59;969.5;;;8.0;100.0
51227;BME280;42714;48.260;10.980;2023-11-21T18:57:00;969.5;;;8.0;100.0
51227;BME280;42714;48.260;10.980;2023-11-21T19:02:01;969.6;;;7.9;100.0
51227;BME280;42714;48.260;10.980;2023-11-21T19:07:02;969.7;;;7.9;100.0
51227;BME280;42714;48.260;10.980;2023-11-21T19:17:04;969.8;;;7.9;100.0
51227;BME280;42714;48.260;10.980;2023-11-21T19:22:05;969.8;;;7.8;100.0
51227;BME280;42714;48.260;10.980;2023-11-21T19:27:06;969.9;;;7.9;100.0
51227;BME280;42714;48.260;10.980;2023-11-21T19:32:07;970.0;;;8.0;100.0
51227;BME280;42714;48.260;10.980;2023-11-21T19:37:08;970.1;;;7.8;100.0
51227;BME280;42714;48.260;10.980;2023-11-21T19:42:09;970.1;;;7.7;100.0
51227;BME280;42714;48.260;10.980;2023-11-21T19:47:10;970.2;;;7.6;100.0
51227;BME280;42714;48.260;10.980;2023-11-21T19:52:11;970.3;;;7.6;100.0
51227;BME280;42714;48.260;10.980;2023-11-21T19:57:12;970.3;;;7.5;100.0
51227;BME280;42714;48.260;10.980;2023-11-21T20:02:13;970.3;;;7.3;100.0
51227;BME280;42714;48.260;10.980;2023-11-21T20:07:14;970.5;;;7.2;100.0
51227;BME280;42714;48.260;10.980;2023-11-21T20:12:15;970.6;;;7.1;100.0
51227;BME280;42714;48.260;10.980;2023-11-21T20:17:16;970.7;;;7.0;100.0
51227;BME280;42714;48.260;10.980;2023-11-21T20:22:17;970.7;;;6.9;100.0
51227;BME280;42714;48.260;10.980;2023-11-21T20:27:18;970.7;;;7.0;100.0
51227;BME280;42714;48.260;10.980;2023-11-21T20:32:19;970.8;;;7.1;100.0
51227;BME280;42714;48.260;10.980;2023-11-21T20:37:20;970.8;;;7.1;100.0
51227;BME280;42714;48.260;10.980;2023-11-21T20:42:21;970.9;;;7.0;100.0
51227;BME280;42714;48.260;10.980;2023-11-21T20:47:22;970.9;;;7.1;100.0
51227;BME280;42714;48.260;10.980;2023-11-21T20:52:23;970.9;;;7.2;100.0
51227;BME280;42714;48.260;10.980;2023-11-21T20:57:24;971.0;;;7.2;100.0
51227;BME280;42714;48.260;10.980;2023-11-21T21:02:25;971.0;;;7.2;100.0
51227;BME280;42714;48.260;10.980;2023-11-21T21:07:26;971.1;;;7.2;100.0
51227;BME280;42714;48.260;10.980;2023-11-21T21:12:27;971.2;;;7.2;100.0
51227;BME280;42714;48.260;10.980;2023-11-21T21:17:28;971.2;;;7.1;100.0
51227;BME280;42714;48.260;10.980;2023-11-21T21:22:29;971.2;;;7.1;100.0
51227;BME280;42714;48.260;10.980;2023-11-21T21:27:30;971.2;;;7.0;100.0
51227;BME280;42714;48.260;10.980;2023-11-21T21:32:31;971.2;;;7.0;100.0
51227;BME280;42714;48.260;10.980;2023-11-21T21:37:32;971.2;;;6.9;100.0
51227;BME280;42714;48.260;10.980;2023-11-21T21:42:33;971.2;;;7.0;100.0
51227;BME280;42714;48.260;10.980;2023-11-21T21:47:34;971.2;;;7.1;100.0
51227;BME280;42714;48.260;10.980;2023-11-21T21:52:35;971.3;;;7.1;100.0
51227;BME280;42714;48.260;10.980;2023-11-21T21:57:36;971.4;;;7.2;100.0
51227;BME280;42714;48.260;10.980;2023-11-21T22:02:37;971.4;;;7.3;100.0
51227;BME280;42714;48.260;10.980;2023-11-21T22:07:39;971.4;;;7.3;100.0
51227;BME280;42714;48.260;10.980;2023-11-21T22:12:39;971.4;;;7.3;100.0
51227;BME280;42714;48.260;10.980;2023-11-21T22:17:40;971.5;;;7.4;100.0
51227;BME280;42714;48.260;10.980;2023-11-21T22:22:41;971.4;;;7.4;100.0
51227;BME280;42714;48.260;10.980;2023-11-21T22:27:42;971.4;;;7.5;100.0
51227;BME280;42714;48.260;10.980;2023-11-21T22:32:43;971.4;;;7.4;100.0
51227;BME280;42714;48.260;10.980;2023-11-21T22:37:44;971.4;;;7.3;100.0
51227;BME280;42714;48.260;10.980;2023-11-21T22:42:45;971.5;;;7.3;100.0
51227;BME280;42714;48.260;10.980;2023-11-21T22:47:46;971.5;;;7.2;100.0
51227;BME280;42714;48.260;10.980;2023-11-21T22:52:47;971.5;;;7.2;100.0
51227;BME280;42714;48.260;10.980;2023-11-21T22:57:48;971.6;;;7.2;100.0
51227;BME280;42714;48.260;10.980;2023-11-21T23:02:49;971.6;;;7.1;100.0
51227;BME280;42714;48.260;10.980;2023-11-21T23:07:50;971.7;;;7.0;100.0
51227;BME280;42714;48.260;10.980;2023-11-21T23:12:51;971.7;;;7.0;100.0
51227;BME280;42714;48.260;10.980;2023-11-21T23:17:52;971.6;;;6.9;100.0
51227;BME280;42714;48.260;10.980;2023-11-21T23:22:53;971.6;;;6.8;100.0
51227;BME280;42714;48.260;10.980;2023-11-21T23:27:54;971.6;;;6.8;100.0
51227;BME280;42714;48.260;10.980;2023-11-21T23:32:55;971.6;;;6.8;100.0
51227;BME280;42714;48.260;10.980;2023-11-21T23:37:56;971.6;;;6.8;100.0
51227;BME280;42714;48.260;10.980;2023-11-21T23:42:57;971.6;;;6.8;100.0
51227;BME280;42714;48.260;10.980;2023-11-21T23:47:58;971.6;;;6.8;100.0
51227;BME280;42714;48.260;10.980;2023-11-21T23:52:59;971.6;;;6.8;100.0
51227;BME280;42714;48.260;10.980;2023-11-21T23:58:00;971.7;;;6.8;100.0
